sensor_id;sensor_type;location;lat;lon;timestamp;P1;durP1;ratioP1;P2;durP2;ratioP2
81229;SDS011;70701;44.452;18.652;2023-07-24T00:01:52;21.20;;;19.10;;
81229;SDS011;70701;44.452;18.652;2023-07-24T00:04:17;20.92;;;18.60;;
81229;SDS011;70701;44.452;18.652;2023-07-24T00:06:43;19.75;;;17.67;;
81229;SDS011;70701;44.452;18.652;2023-07-24T00:09:08;20.48;;;18.58;;
81229;SDS011;70701;44.452;18.652;2023-07-24T00:11:34;19.77;;;17.88;;
81229;SDS011;70701;44.452;18.652;2023-07-24T00:13:59;22.60;;;19.33;;
81229;SDS011;70701;44.452;18.652;2023-07-24T00:16:25;22.50;;;20.02;;
81229;SDS011;70701;44.452;18.652;2023-07-24T00:18:51;22.50;;;19.98;;
81229;SDS011;70701;44.452;18.652;2023-07-24T00:21:16;22.42;;;19.60;;
81229;SDS011;70701;44.452;18.652;2023-07-24T00:23:42;23.02;;;20.63;;
81229;SDS011;70701;44.452;18.652;2023-07-24T00:26:07;25.67;;;21.35;;
81229;SDS011;70701;44.452;18.652;2023-07-24T00:28:33;24.35;;;21.77;;
81229;SDS011;70701;44.452;18.652;2023-07-24T00:30:58;25.02;;;22.33;;
81229;SDS011;70701;44.452;18.652;2023-07-24T00:33:24;24.55;;;21.75;;
81229;SDS011;70701;44.452;18.652;2023-07-24T00:35:49;24.27;;;21.52;;
81229;SDS011;70701;44.452;18.652;2023-07-24T00:38:15;25.20;;;22.40;;
81229;SDS011;70701;44.452;18.652;2023-07-24T00:40:41;26.70;;;22.45;;
81229;SDS011;70701;44.452;18.652;2023-07-24T00:43:06;26.10;;;22.42;;
81229;SDS011;70701;44.452;18.652;2023-07-24T00:45:33;26.98;;;21.73;;
81229;SDS011;70701;44.452;18.652;2023-07-24T00:47:59;24.75;;;22.15;;
81229;SDS011;70701;44.452;18.652;2023-07-24T00:50:25;24.80;;;22.23;;
81229;SDS011;70701;44.452;18.652;2023-07-24T00:52:52;27.10;;;22.65;;
81229;SDS011;70701;44.452;18.652;2023-07-24T00:55:19;25.33;;;22.45;;
81229;SDS011;70701;44.452;18.652;2023-07-24T00:57:44;24.38;;;21.90;;
81229;SDS011;70701;44.452;18.652;2023-07-24T01:00:10;23.05;;;20.75;;
81229;SDS011;70701;44.452;18.652;2023-07-24T01:02:36;18.65;;;16.85;;
81229;SDS011;70701;44.452;18.652;2023-07-24T01:05:03;18.50;;;16.63;;
81229;SDS011;70701;44.452;18.652;2023-07-24T01:07:29;17.50;;;15.77;;
81229;SDS011;70701;44.452;18.652;2023-07-24T01:09:55;16.48;;;14.88;;
81229;SDS011;70701;44.452;18.652;2023-07-24T01:15:32;17.63;;;15.93;;
81229;SDS011;70701;44.452;18.652;2023-07-24T01:18:00;17.10;;;15.50;;
81229;SDS011;70701;44.452;18.652;2023-07-24T01:20:30;17.92;;;16.33;;
81229;SDS011;70701;44.452;18.652;2023-07-24T01:26:01;20.17;;;17.55;;
81229;SDS011;70701;44.452;18.652;2023-07-24T01:28:29;21.40;;;19.20;;
81229;SDS011;70701;44.452;18.652;2023-07-24T01:30:55;22.17;;;19.70;;
81229;SDS011;70701;44.452;18.652;2023-07-24T01:33:21;22.20;;;19.90;;
81229;SDS011;70701;44.452;18.652;2023-07-24T01:35:53;22.55;;;19.60;;
81229;SDS011;70701;44.452;18.652;2023-07-24T01:38:21;21.87;;;19.73;;
81229;SDS011;70701;44.452;18.652;2023-07-24T01:40:50;22.52;;;19.63;;
81229;SDS011;70701;44.452;18.652;2023-07-24T01:43:17;21.63;;;19.50;;
81229;SDS011;70701;44.452;18.652;2023-07-24T01:45:43;22.05;;;19.50;;
81229;SDS011;70701;44.452;18.652;2023-07-24T01:48:08;22.70;;;20.40;;
81229;SDS011;70701;44.452;18.652;2023-07-24T01:50:34;21.55;;;18.88;;
81229;SDS011;70701;44.452;18.652;2023-07-24T01:52:59;22.10;;;19.38;;
81229;SDS011;70701;44.452;18.652;2023-07-24T01:55:25;22.95;;;18.80;;
81229;SDS011;70701;44.452;18.652;2023-07-24T01:57:50;22.38;;;19.05;;
81229;SDS011;70701;44.452;18.652;2023-07-24T02:00:16;23.20;;;19.85;;
81229;SDS011;70701;44.452;18.652;2023-07-24T02:02:42;21.83;;;18.92;;
81229;SDS011;70701;44.452;18.652;2023-07-24T02:05:08;22.27;;;19.88;;
81229;SDS011;70701;44.452;18.652;2023-07-24T02:07:33;21.77;;;18.52;;
81229;SDS011;70701;44.452;18.652;2023-07-24T02:09:59;22.02;;;19.70;;
81229;SDS011;70701;44.452;18.652;2023-07-24T02:12:25;22.05;;;18.25;;
81229;SDS011;70701;44.452;18.652;2023-07-24T02:14:50;22.48;;;20.00;;
81229;SDS011;70701;44.452;18.652;2023-07-24T02:17:17;23.55;;;18.77;;
81229;SDS011;70701;44.452;18.652;2023-07-24T02:19:43;22.33;;;18.75;;
81229;SDS011;70701;44.452;18.652;2023-07-24T02:22:10;25.70;;;19.15;;
81229;SDS011;70701;44.452;18.652;2023-07-24T02:24:36;24.25;;;18.63;;
81229;SDS011;70701;44.452;18.652;2023-07-24T02:27:01;20.75;;;17.88;;
81229;SDS011;70701;44.452;18.652;2023-07-24T02:29:30;16.38;;;14.60;;
81229;SDS011;70701;44.452;18.652;2023-07-24T02:31:57;15.60;;;14.05;;
81229;SDS011;70701;44.452;18.652;2023-07-24T02:34:23;15.27;;;13.77;;
81229;SDS011;70701;44.452;18.652;2023-07-24T02:36:51;19.27;;;14.23;;
81229;SDS011;70701;44.452;18.652;2023-07-24T02:39:18;16.13;;;14.63;;
81229;SDS011;70701;44.452;18.652;2023-07-24T02:41:44;18.60;;;15.45;;
81229;SDS011;70701;44.452;18.652;2023-07-24T02:44:10;15.82;;;14.30;;
81229;SDS011;70701;44.452;18.652;2023-07-24T02:46:36;16.63;;;15.10;;
81229;SDS011;70701;44.452;18.652;2023-07-24T02:49:02;17.17;;;15.43;;
81229;SDS011;70701;44.452;18.652;2023-07-24T02:51:28;17.52;;;15.68;;
81229;SDS011;70701;44.452;18.652;2023-07-24T02:53:54;17.27;;;15.57;;
81229;SDS011;70701;44.452;18.652;2023-07-24T02:56:20;16.50;;;14.82;;
81229;SDS011;70701;44.452;18.652;2023-07-24T02:58:46;17.27;;;15.45;;
81229;SDS011;70701;44.452;18.652;2023-07-24T03:01:12;17.38;;;15.48;;
81229;SDS011;70701;44.452;18.652;2023-07-24T03:03:42;16.35;;;14.65;;
81229;SDS011;70701;44.452;18.652;2023-07-24T03:06:08;18.30;;;16.42;;
81229;SDS011;70701;44.452;18.652;2023-07-24T03:08:33;18.00;;;16.17;;
81229;SDS011;70701;44.452;18.652;2023-07-24T03:11:00;17.48;;;15.75;;
81229;SDS011;70701;44.452;18.652;2023-07-24T03:13:27;18.48;;;16.52;;
81229;SDS011;70701;44.452;18.652;2023-07-24T03:15:53;18.67;;;14.40;;
81229;SDS011;70701;44.452;18.652;2023-07-24T03:18:20;19.30;;;14.40;;
81229;SDS011;70701;44.452;18.652;2023-07-24T03:20:46;17.95;;;14.38;;
81229;SDS011;70701;44.452;18.652;2023-07-24T03:23:12;16.35;;;14.18;;
81229;SDS011;70701;44.452;18.652;2023-07-24T03:25:38;19.08;;;15.35;;
81229;SDS011;70701;44.452;18.652;2023-07-24T03:28:04;18.38;;;15.95;;
81229;SDS011;70701;44.452;18.652;2023-07-24T03:30:30;16.70;;;14.85;;
81229;SDS011;70701;44.452;18.652;2023-07-24T03:32:56;15.32;;;13.75;;
81229;SDS011;70701;44.452;18.652;2023-07-24T03:35:22;18.08;;;15.32;;
81229;SDS011;70701;44.452;18.652;2023-07-24T03:37:48;20.13;;;17.40;;
81229;SDS011;70701;44.452;18.652;2023-07-24T03:40:13;18.83;;;16.23;;
81229;SDS011;70701;44.452;18.652;2023-07-24T03:42:39;18.83;;;16.83;;
81229;SDS011;70701;44.452;18.652;2023-07-24T03:45:05;18.50;;;16.70;;
81229;SDS011;70701;44.452;18.652;2023-07-24T03:47:31;18.60;;;16.70;;
81229;SDS011;70701;44.452;18.652;2023-07-24T03:49:57;20.10;;;17.17;;
81229;SDS011;70701;44.452;18.652;2023-07-24T03:52:22;17.77;;;15.90;;
81229;SDS011;70701;44.452;18.652;2023-07-24T03:54:48;17.40;;;15.57;;
81229;SDS011;70701;44.452;18.652;2023-07-24T03:57:13;16.98;;;15.20;;
81229;SDS011;70701;44.452;18.652;2023-07-24T03:59:39;16.52;;;14.85;;
81229;SDS011;70701;44.452;18.652;2023-07-24T04:02:05;16.63;;;14.52;;
81229;SDS011;70701;44.452;18.652;2023-07-24T04:04:31;14.70;;;13.30;;
81229;SDS011;70701;44.452;18.652;2023-07-24T04:06:56;15.68;;;14.13;;
81229;SDS011;70701;44.452;18.652;2023-07-24T04:09:22;15.65;;;14.15;;
81229;SDS011;70701;44.452;18.652;2023-07-24T04:11:47;15.98;;;14.35;;
81229;SDS011;70701;44.452;18.652;2023-07-24T04:14:13;15.35;;;13.90;;
81229;SDS011;70701;44.452;18.652;2023-07-24T04:16:38;16.60;;;14.85;;
81229;SDS011;70701;44.452;18.652;2023-07-24T04:19:04;17.73;;;15.15;;
81229;SDS011;70701;44.452;18.652;2023-07-24T04:21:30;20.25;;;16.30;;
81229;SDS011;70701;44.452;18.652;2023-07-24T04:23:56;18.90;;;16.10;;
81229;SDS011;70701;44.452;18.652;2023-07-24T04:26:21;19.67;;;17.55;;
81229;SDS011;70701;44.452;18.652;2023-07-24T04:28:47;20.40;;;18.20;;
81229;SDS011;70701;44.452;18.652;2023-07-24T04:31:13;19.67;;;17.67;;
81229;SDS011;70701;44.452;18.652;2023-07-24T04:33:38;19.45;;;17.35;;
81229;SDS011;70701;44.452;18.652;2023-07-24T04:36:04;20.42;;;16.67;;
81229;SDS011;70701;44.452;18.652;2023-07-24T04:38:30;19.75;;;17.67;;
81229;SDS011;70701;44.452;18.652;2023-07-24T04:40:55;18.52;;;16.52;;
81229;SDS011;70701;44.452;18.652;2023-07-24T04:43:21;17.08;;;14.48;;
81229;SDS011;70701;44.452;18.652;2023-07-24T04:45:47;16.33;;;13.93;;
81229;SDS011;70701;44.452;18.652;2023-07-24T04:48:12;19.27;;;14.98;;
81229;SDS011;70701;44.452;18.652;2023-07-24T04:50:38;17.65;;;15.93;;
81229;SDS011;70701;44.452;18.652;2023-07-24T04:53:03;16.42;;;13.93;;
81229;SDS011;70701;44.452;18.652;2023-07-24T04:55:29;17.70;;;15.80;;
81229;SDS011;70701;44.452;18.652;2023-07-24T04:57:55;17.60;;;15.32;;
81229;SDS011;70701;44.452;18.652;2023-07-24T05:00:20;17.02;;;15.23;;
81229;SDS011;70701;44.452;18.652;2023-07-24T05:02:46;17.67;;;15.55;;
81229;SDS011;70701;44.452;18.652;2023-07-24T05:05:11;16.95;;;15.13;;
81229;SDS011;70701;44.452;18.652;2023-07-24T05:07:37;17.50;;;15.50;;
81229;SDS011;70701;44.452;18.652;2023-07-24T05:10:02;16.33;;;14.65;;
81229;SDS011;70701;44.452;18.652;2023-07-24T05:12:28;17.17;;;15.48;;
81229;SDS011;70701;44.452;18.652;2023-07-24T05:14:54;22.85;;;15.98;;
81229;SDS011;70701;44.452;18.652;2023-07-24T05:17:19;18.15;;;16.27;;
81229;SDS011;70701;44.452;18.652;2023-07-24T05:19:45;17.55;;;15.82;;
81229;SDS011;70701;44.452;18.652;2023-07-24T05:22:11;16.95;;;15.18;;
81229;SDS011;70701;44.452;18.652;2023-07-24T05:24:36;18.83;;;15.65;;
81229;SDS011;70701;44.452;18.652;2023-07-24T05:27:03;17.00;;;15.20;;
81229;SDS011;70701;44.452;18.652;2023-07-24T05:29:29;17.17;;;15.38;;
81229;SDS011;70701;44.452;18.652;2023-07-24T05:31:55;18.52;;;16.63;;
81229;SDS011;70701;44.452;18.652;2023-07-24T05:34:21;18.60;;;16.60;;
81229;SDS011;70701;44.452;18.652;2023-07-24T05:36:46;16.88;;;15.20;;
81229;SDS011;70701;44.452;18.652;2023-07-24T05:39:12;20.05;;;16.02;;
81229;SDS011;70701;44.452;18.652;2023-07-24T05:41:37;18.05;;;16.15;;
81229;SDS011;70701;44.452;18.652;2023-07-24T05:44:03;19.67;;;15.52;;
81229;SDS011;70701;44.452;18.652;2023-07-24T05:46:29;19.90;;;17.83;;
81229;SDS011;70701;44.452;18.652;2023-07-24T05:48:54;19.88;;;17.88;;
81229;SDS011;70701;44.452;18.652;2023-07-24T05:51:21;19.85;;;17.75;;
81229;SDS011;70701;44.452;18.652;2023-07-24T05:53:47;20.50;;;18.17;;
81229;SDS011;70701;44.452;18.652;2023-07-24T05:56:13;18.60;;;16.70;;
81229;SDS011;70701;44.452;18.652;2023-07-24T05:58:38;19.35;;;17.13;;
81229;SDS011;70701;44.452;18.652;2023-07-24T06:01:05;18.75;;;16.85;;
81229;SDS011;70701;44.452;18.652;2023-07-24T06:03:33;18.67;;;16.75;;
81229;SDS011;70701;44.452;18.652;2023-07-24T06:05:58;20.38;;;18.08;;
81229;SDS011;70701;44.452;18.652;2023-07-24T06:08:24;21.10;;;17.55;;
81229;SDS011;70701;44.452;18.652;2023-07-24T06:10:50;20.40;;;18.27;;
81229;SDS011;70701;44.452;18.652;2023-07-24T06:13:16;19.65;;;17.75;;
81229;SDS011;70701;44.452;18.652;2023-07-24T06:15:42;23.05;;;20.58;;
81229;SDS011;70701;44.452;18.652;2023-07-24T06:18:08;21.20;;;18.67;;
81229;SDS011;70701;44.452;18.652;2023-07-24T06:20:34;23.58;;;21.20;;
81229;SDS011;70701;44.452;18.652;2023-07-24T06:22:59;25.85;;;23.05;;
81229;SDS011;70701;44.452;18.652;2023-07-24T06:25:25;29.95;;;24.83;;
81229;SDS011;70701;44.452;18.652;2023-07-24T06:27:50;36.95;;;33.05;;
81229;SDS011;70701;44.452;18.652;2023-07-24T06:30:16;41.03;;;36.65;;
81229;SDS011;70701;44.452;18.652;2023-07-24T06:32:42;35.78;;;31.98;;
81229;SDS011;70701;44.452;18.652;2023-07-24T06:35:08;34.17;;;29.42;;
81229;SDS011;70701;44.452;18.652;2023-07-24T06:37:34;31.13;;;27.38;;
81229;SDS011;70701;44.452;18.652;2023-07-24T06:39:59;33.55;;;29.95;;
81229;SDS011;70701;44.452;18.652;2023-07-24T06:42:25;27.48;;;23.88;;
81229;SDS011;70701;44.452;18.652;2023-07-24T06:44:51;22.05;;;18.42;;
81229;SDS011;70701;44.452;18.652;2023-07-24T06:47:16;26.40;;;23.67;;
81229;SDS011;70701;44.452;18.652;2023-07-24T06:49:42;34.92;;;29.13;;
81229;SDS011;70701;44.452;18.652;2023-07-24T06:52:07;30.42;;;24.73;;
81229;SDS011;70701;44.452;18.652;2023-07-24T06:54:33;26.55;;;21.98;;
81229;SDS011;70701;44.452;18.652;2023-07-24T06:56:58;27.85;;;24.80;;
81229;SDS011;70701;44.452;18.652;2023-07-24T06:59:24;29.13;;;25.77;;
81229;SDS011;70701;44.452;18.652;2023-07-24T07:01:50;21.10;;;18.83;;
81229;SDS011;70701;44.452;18.652;2023-07-24T07:04:15;33.20;;;26.02;;
81229;SDS011;70701;44.452;18.652;2023-07-24T07:06:41;24.85;;;21.63;;
81229;SDS011;70701;44.452;18.652;2023-07-24T07:09:07;29.15;;;25.40;;
81229;SDS011;70701;44.452;18.652;2023-07-24T07:11:32;23.75;;;19.23;;
81229;SDS011;70701;44.452;18.652;2023-07-24T07:13:58;20.70;;;18.55;;
81229;SDS011;70701;44.452;18.652;2023-07-24T07:16:23;22.50;;;18.92;;
81229;SDS011;70701;44.452;18.652;2023-07-24T07:18:49;19.17;;;16.42;;
81229;SDS011;70701;44.452;18.652;2023-07-24T07:21:15;19.10;;;15.48;;
81229;SDS011;70701;44.452;18.652;2023-07-24T07:23:40;18.90;;;16.42;;
81229;SDS011;70701;44.452;18.652;2023-07-24T07:26:06;18.88;;;15.82;;
81229;SDS011;70701;44.452;18.652;2023-07-24T07:28:32;18.20;;;15.52;;
81229;SDS011;70701;44.452;18.652;2023-07-24T07:30:57;17.20;;;14.63;;
81229;SDS011;70701;44.452;18.652;2023-07-24T07:33:26;18.08;;;14.35;;
81229;SDS011;70701;44.452;18.652;2023-07-24T07:35:52;18.52;;;14.32;;
81229;SDS011;70701;44.452;18.652;2023-07-24T07:38:17;17.80;;;14.65;;
81229;SDS011;70701;44.452;18.652;2023-07-24T07:40:43;15.73;;;12.90;;
81229;SDS011;70701;44.452;18.652;2023-07-24T07:43:09;21.10;;;14.75;;
81229;SDS011;70701;44.452;18.652;2023-07-24T07:45:34;16.50;;;13.43;;
81229;SDS011;70701;44.452;18.652;2023-07-24T07:48:00;16.13;;;13.60;;
81229;SDS011;70701;44.452;18.652;2023-07-24T07:50:25;17.20;;;13.52;;
81229;SDS011;70701;44.452;18.652;2023-07-24T07:52:51;15.35;;;13.75;;
81229;SDS011;70701;44.452;18.652;2023-07-24T07:55:20;14.75;;;13.10;;
81229;SDS011;70701;44.452;18.652;2023-07-24T07:57:46;15.80;;;12.57;;
81229;SDS011;70701;44.452;18.652;2023-07-24T08:00:12;14.18;;;12.30;;
81229;SDS011;70701;44.452;18.652;2023-07-24T08:02:38;14.88;;;12.45;;
81229;SDS011;70701;44.452;18.652;2023-07-24T08:05:05;15.65;;;12.95;;
81229;SDS011;70701;44.452;18.652;2023-07-24T08:07:34;16.15;;;12.18;;
81229;SDS011;70701;44.452;18.652;2023-07-24T08:10:00;16.08;;;13.27;;
81229;SDS011;70701;44.452;18.652;2023-07-24T08:12:27;16.13;;;13.00;;
81229;SDS011;70701;44.452;18.652;2023-07-24T08:14:52;15.38;;;12.52;;
81229;SDS011;70701;44.452;18.652;2023-07-24T08:17:18;16.58;;;12.65;;
81229;SDS011;70701;44.452;18.652;2023-07-24T08:19:45;15.35;;;12.65;;
81229;SDS011;70701;44.452;18.652;2023-07-24T08:22:10;15.32;;;11.75;;
81229;SDS011;70701;44.452;18.652;2023-07-24T08:24:36;14.93;;;12.07;;
81229;SDS011;70701;44.452;18.652;2023-07-24T08:27:02;17.83;;;12.43;;
81229;SDS011;70701;44.452;18.652;2023-07-24T08:29:28;14.98;;;12.82;;
81229;SDS011;70701;44.452;18.652;2023-07-24T08:31:54;14.30;;;12.07;;
81229;SDS011;70701;44.452;18.652;2023-07-24T08:34:20;19.08;;;13.00;;
81229;SDS011;70701;44.452;18.652;2023-07-24T08:36:45;22.08;;;12.60;;
81229;SDS011;70701;44.452;18.652;2023-07-24T08:39:11;16.88;;;13.38;;
81229;SDS011;70701;44.452;18.652;2023-07-24T08:41:37;14.88;;;12.13;;
81229;SDS011;70701;44.452;18.652;2023-07-24T08:44:07;16.38;;;12.68;;
81229;SDS011;70701;44.452;18.652;2023-07-24T08:46:37;15.93;;;11.90;;
81229;SDS011;70701;44.452;18.652;2023-07-24T08:49:13;14.45;;;12.70;;
81229;SDS011;70701;44.452;18.652;2023-07-24T08:51:41;14.60;;;12.32;;
81229;SDS011;70701;44.452;18.652;2023-07-24T08:54:07;13.93;;;11.48;;
81229;SDS011;70701;44.452;18.652;2023-07-24T08:56:33;17.73;;;12.20;;
81229;SDS011;70701;44.452;18.652;2023-07-24T08:59:01;16.33;;;11.48;;
81229;SDS011;70701;44.452;18.652;2023-07-24T09:01:27;16.40;;;12.20;;
81229;SDS011;70701;44.452;18.652;2023-07-24T09:03:52;15.48;;;11.88;;
81229;SDS011;70701;44.452;18.652;2023-07-24T09:06:18;15.45;;;11.77;;
81229;SDS011;70701;44.452;18.652;2023-07-24T09:08:44;15.18;;;12.65;;
81229;SDS011;70701;44.452;18.652;2023-07-24T09:11:10;14.85;;;11.55;;
81229;SDS011;70701;44.452;18.652;2023-07-24T09:13:41;17.30;;;11.80;;
81229;SDS011;70701;44.452;18.652;2023-07-24T09:16:07;17.25;;;11.40;;
81229;SDS011;70701;44.452;18.652;2023-07-24T09:18:39;15.85;;;11.98;;
81229;SDS011;70701;44.452;18.652;2023-07-24T09:21:06;38.90;;;33.38;;
81229;SDS011;70701;44.452;18.652;2023-07-24T09:23:32;20.27;;;15.05;;
81229;SDS011;70701;44.452;18.652;2023-07-24T09:25:58;19.45;;;15.32;;
81229;SDS011;70701;44.452;18.652;2023-07-24T09:28:24;16.00;;;11.27;;
81229;SDS011;70701;44.452;18.652;2023-07-24T09:30:56;16.00;;;11.27;;
81229;SDS011;70701;44.452;18.652;2023-07-24T09:33:33;18.38;;;11.88;;
81229;SDS011;70701;44.452;18.652;2023-07-24T09:36:00;15.27;;;11.55;;
81229;SDS011;70701;44.452;18.652;2023-07-24T09:38:26;17.98;;;12.45;;
81229;SDS011;70701;44.452;18.652;2023-07-24T09:40:52;13.55;;;10.63;;
81229;SDS011;70701;44.452;18.652;2023-07-24T09:43:20;14.85;;;10.95;;
81229;SDS011;70701;44.452;18.652;2023-07-24T09:45:47;13.80;;;10.68;;
81229;SDS011;70701;44.452;18.652;2023-07-24T09:48:14;14.45;;;10.50;;
81229;SDS011;70701;44.452;18.652;2023-07-24T09:50:42;17.58;;;12.43;;
81229;SDS011;70701;44.452;18.652;2023-07-24T09:53:13;20.23;;;15.05;;
81229;SDS011;70701;44.452;18.652;2023-07-24T09:55:49;26.38;;;20.17;;
81229;SDS011;70701;44.452;18.652;2023-07-24T09:58:20;20.13;;;14.68;;
81229;SDS011;70701;44.452;18.652;2023-07-24T10:00:47;15.63;;;11.27;;
81229;SDS011;70701;44.452;18.652;2023-07-24T10:03:14;14.30;;;11.38;;
81229;SDS011;70701;44.452;18.652;2023-07-24T10:05:41;14.70;;;11.52;;
81229;SDS011;70701;44.452;18.652;2023-07-24T10:08:09;15.77;;;11.00;;
81229;SDS011;70701;44.452;18.652;2023-07-24T10:10:35;16.17;;;11.02;;
81229;SDS011;70701;44.452;18.652;2023-07-24T10:13:03;14.23;;;10.07;;
81229;SDS011;70701;44.452;18.652;2023-07-24T10:15:31;15.90;;;9.98;;
81229;SDS011;70701;44.452;18.652;2023-07-24T10:18:04;26.33;;;22.48;;
81229;SDS011;70701;44.452;18.652;2023-07-24T10:20:38;18.60;;;13.77;;
81229;SDS011;70701;44.452;18.652;2023-07-24T10:23:05;16.05;;;11.93;;
81229;SDS011;70701;44.452;18.652;2023-07-24T10:25:34;15.88;;;11.50;;
81229;SDS011;70701;44.452;18.652;2023-07-24T10:28:05;30.17;;;23.90;;
81229;SDS011;70701;44.452;18.652;2023-07-24T10:30:40;32.88;;;25.80;;
81229;SDS011;70701;44.452;18.652;2023-07-24T10:36:05;19.23;;;14.35;;
81229;SDS011;70701;44.452;18.652;2023-07-24T10:38:35;16.05;;;10.88;;
81229;SDS011;70701;44.452;18.652;2023-07-24T10:41:05;17.58;;;12.43;;
81229;SDS011;70701;44.452;18.652;2023-07-24T10:43:51;20.45;;;16.35;;
81229;SDS011;70701;44.452;18.652;2023-07-24T10:46:18;18.35;;;14.77;;
81229;SDS011;70701;44.452;18.652;2023-07-24T10:48:46;18.27;;;14.73;;
81229;SDS011;70701;44.452;18.652;2023-07-24T10:51:14;17.60;;;12.38;;
81229;SDS011;70701;44.452;18.652;2023-07-24T10:53:47;17.15;;;11.65;;
81229;SDS011;70701;44.452;18.652;2023-07-24T10:56:14;19.65;;;11.35;;
81229;SDS011;70701;44.452;18.652;2023-07-24T10:58:40;16.25;;;10.52;;
81229;SDS011;70701;44.452;18.652;2023-07-24T11:01:06;15.45;;;11.30;;
81229;SDS011;70701;44.452;18.652;2023-07-24T11:03:35;16.88;;;10.60;;
81229;SDS011;70701;44.452;18.652;2023-07-24T11:06:02;12.82;;;10.20;;
81229;SDS011;70701;44.452;18.652;2023-07-24T11:08:28;14.63;;;10.88;;
81229;SDS011;70701;44.452;18.652;2023-07-24T11:10:55;15.85;;;10.20;;
81229;SDS011;70701;44.452;18.652;2023-07-24T11:13:23;15.27;;;11.10;;
81229;SDS011;70701;44.452;18.652;2023-07-24T11:15:52;16.65;;;12.88;;
81229;SDS011;70701;44.452;18.652;2023-07-24T11:18:19;16.05;;;12.60;;
81229;SDS011;70701;44.452;18.652;2023-07-24T11:23:17;12.85;;;10.10;;
81229;SDS011;70701;44.452;18.652;2023-07-24T11:25:43;14.13;;;10.75;;
81229;SDS011;70701;44.452;18.652;2023-07-24T11:28:10;14.25;;;10.32;;
81229;SDS011;70701;44.452;18.652;2023-07-24T11:30:37;27.77;;;22.45;;
81229;SDS011;70701;44.452;18.652;2023-07-24T11:33:03;20.90;;;15.65;;
81229;SDS011;70701;44.452;18.652;2023-07-24T11:35:31;25.63;;;19.08;;
81229;SDS011;70701;44.452;18.652;2023-07-24T11:37:57;20.45;;;13.98;;
81229;SDS011;70701;44.452;18.652;2023-07-24T11:40:32;17.20;;;12.65;;
81229;SDS011;70701;44.452;18.652;2023-07-24T11:43:03;15.32;;;12.18;;
81229;SDS011;70701;44.452;18.652;2023-07-24T11:45:42;18.48;;;11.93;;
81229;SDS011;70701;44.452;18.652;2023-07-24T11:48:09;15.65;;;10.82;;
81229;SDS011;70701;44.452;18.652;2023-07-24T11:50:42;16.23;;;11.95;;
81229;SDS011;70701;44.452;18.652;2023-07-24T11:55:56;15.43;;;11.55;;
81229;SDS011;70701;44.452;18.652;2023-07-24T11:58:29;18.33;;;11.82;;
81229;SDS011;70701;44.452;18.652;2023-07-24T12:00:55;20.55;;;15.25;;
81229;SDS011;70701;44.452;18.652;2023-07-24T12:03:22;18.02;;;13.13;;
81229;SDS011;70701;44.452;18.652;2023-07-24T12:05:52;23.33;;;17.88;;
81229;SDS011;70701;44.452;18.652;2023-07-24T12:08:21;17.67;;;11.73;;
81229;SDS011;70701;44.452;18.652;2023-07-24T12:10:58;14.52;;;10.43;;
81229;SDS011;70701;44.452;18.652;2023-07-24T12:13:24;14.68;;;10.55;;
81229;SDS011;70701;44.452;18.652;2023-07-24T12:15:50;16.27;;;11.20;;
81229;SDS011;70701;44.452;18.652;2023-07-24T12:18:15;14.50;;;10.88;;
81229;SDS011;70701;44.452;18.652;2023-07-24T12:20:41;13.23;;;11.00;;
81229;SDS011;70701;44.452;18.652;2023-07-24T12:23:06;14.38;;;10.27;;
81229;SDS011;70701;44.452;18.652;2023-07-24T12:25:35;15.75;;;10.63;;
81229;SDS011;70701;44.452;18.652;2023-07-24T12:28:01;16.95;;;10.27;;
81229;SDS011;70701;44.452;18.652;2023-07-24T12:30:27;16.00;;;10.55;;
81229;SDS011;70701;44.452;18.652;2023-07-24T12:32:53;14.98;;;10.32;;
81229;SDS011;70701;44.452;18.652;2023-07-24T12:35:19;15.65;;;10.68;;
81229;SDS011;70701;44.452;18.652;2023-07-24T12:37:45;12.90;;;9.60;;
81229;SDS011;70701;44.452;18.652;2023-07-24T12:40:11;13.45;;;10.18;;
81229;SDS011;70701;44.452;18.652;2023-07-24T12:42:37;16.25;;;11.50;;
81229;SDS011;70701;44.452;18.652;2023-07-24T12:45:02;13.73;;;10.50;;
81229;SDS011;70701;44.452;18.652;2023-07-24T12:47:30;15.85;;;10.50;;
81229;SDS011;70701;44.452;18.652;2023-07-24T12:49:56;13.45;;;9.93;;
81229;SDS011;70701;44.452;18.652;2023-07-24T12:52:23;13.93;;;9.98;;
81229;SDS011;70701;44.452;18.652;2023-07-24T12:54:49;13.90;;;10.20;;
81229;SDS011;70701;44.452;18.652;2023-07-24T12:57:15;12.82;;;9.70;;
81229;SDS011;70701;44.452;18.652;2023-07-24T12:59:41;12.93;;;9.77;;
81229;SDS011;70701;44.452;18.652;2023-07-24T13:02:06;14.32;;;9.45;;
81229;SDS011;70701;44.452;18.652;2023-07-24T13:04:32;14.27;;;11.38;;
81229;SDS011;70701;44.452;18.652;2023-07-24T13:06:57;17.23;;;11.30;;
81229;SDS011;70701;44.452;18.652;2023-07-24T13:09:25;16.08;;;12.90;;
81229;SDS011;70701;44.452;18.652;2023-07-24T13:11:51;15.48;;;10.20;;
81229;SDS011;70701;44.452;18.652;2023-07-24T13:14:19;15.50;;;10.02;;
81229;SDS011;70701;44.452;18.652;2023-07-24T13:16:45;13.68;;;10.48;;
81229;SDS011;70701;44.452;18.652;2023-07-24T13:19:11;14.60;;;10.10;;
81229;SDS011;70701;44.452;18.652;2023-07-24T13:21:37;12.60;;;9.68;;
81229;SDS011;70701;44.452;18.652;2023-07-24T13:24:05;13.70;;;9.70;;
81229;SDS011;70701;44.452;18.652;2023-07-24T13:26:31;13.35;;;9.57;;
81229;SDS011;70701;44.452;18.652;2023-07-24T13:28:59;14.50;;;11.00;;
81229;SDS011;70701;44.452;18.652;2023-07-24T13:31:28;14.15;;;9.43;;
81229;SDS011;70701;44.452;18.652;2023-07-24T13:33:56;18.08;;;10.20;;
81229;SDS011;70701;44.452;18.652;2023-07-24T13:36:21;19.02;;;10.38;;
81229;SDS011;70701;44.452;18.652;2023-07-24T13:38:47;15.20;;;10.75;;
81229;SDS011;70701;44.452;18.652;2023-07-24T13:41:13;17.08;;;10.90;;
81229;SDS011;70701;44.452;18.652;2023-07-24T13:43:38;14.85;;;10.48;;
81229;SDS011;70701;44.452;18.652;2023-07-24T13:46:04;13.93;;;10.40;;
81229;SDS011;70701;44.452;18.652;2023-07-24T13:48:32;13.45;;;9.85;;
81229;SDS011;70701;44.452;18.652;2023-07-24T13:50:58;19.73;;;12.68;;
81229;SDS011;70701;44.452;18.652;2023-07-24T13:53:24;14.85;;;10.70;;
81229;SDS011;70701;44.452;18.652;2023-07-24T13:55:50;14.23;;;10.40;;
81229;SDS011;70701;44.452;18.652;2023-07-24T13:58:16;13.77;;;10.43;;
81229;SDS011;70701;44.452;18.652;2023-07-24T14:00:41;15.95;;;10.48;;
81229;SDS011;70701;44.452;18.652;2023-07-24T14:03:07;13.00;;;10.32;;
81229;SDS011;70701;44.452;18.652;2023-07-24T14:05:33;14.98;;;11.10;;
81229;SDS011;70701;44.452;18.652;2023-07-24T14:08:01;15.02;;;10.75;;
81229;SDS011;70701;44.452;18.652;2023-07-24T14:10:27;16.60;;;10.43;;
81229;SDS011;70701;44.452;18.652;2023-07-24T14:12:53;14.63;;;10.80;;
81229;SDS011;70701;44.452;18.652;2023-07-24T14:15:18;16.38;;;10.20;;
81229;SDS011;70701;44.452;18.652;2023-07-24T14:17:44;13.38;;;10.15;;
81229;SDS011;70701;44.452;18.652;2023-07-24T14:20:10;14.52;;;10.32;;